Zavodoukovsk, Russia
Current Conditions -  °F | °C
As of 5:30 AM on Tuesday 27 Jan 2015 (Local Time) from USTR Reporting Station
Blowing Snow Blowing Snow  
Wind Chill: -4°   Ceiling: Unl
Heat Index: 14°   Visibility: 6mi
Dew Point:   Wind: 20mph
Humidity: 53%   Direction: 250°WSW
Pressure: 30.27"   Gusts: 27mph
Location:  56.51°N, 66.54°E
Report Text: USTR 270030Z 25009G12MPS 9999 DRSN NSC M10/M18 Q1025 TEMPO24014MPS RMK QFE759/1013 21390060 30750029
Loading
Personal Weather Stations






























Interactive Weather Map New forecast layout! Learn more

10-Day Weather Forecast

Advertisements
Track Severe Weather on mobile